Kilgetty, United Kingdom
Current Conditions -  °F | °C
As of 2:50 AM on Tuesday 27 Jan 2015 (Local Time) from EGOP Reporting Station
Scattered Clouds Scattered Clouds  
Wind Chill: 37°   Ceiling: Unl
Heat Index: 43°   Visibility: 6mi
Dew Point: 39°   Wind: 10mph
Humidity: 87%   Direction: 270°W
Pressure: 30.45"   Gusts: NA
Location:  51.73°N, 4.76°W
Report Text: EGOP 270250Z AUTO 27009KT 9999 // FEW040/// SCT120/// 06/04 Q1031
Loading
Personal Weather Stations






























Interactive Weather Map New forecast layout! Learn more

10-Day Weather Forecast

Advertisements
Track Severe Weather on mobile